Uranium City, Canada
Current Conditions -  °F | °C
As of 2:00 PM on Sunday 23 Nov 2014 (Local Time) from CYSF Reporting Station
Overcast Overcast  
Wind Chill: -18°   Ceiling: 7500
Heat Index: -6°   Visibility: 9mi
Dew Point: -11°   Wind: 6mph
Humidity: 77%   Direction: 100°E
Pressure: 29.86"   Gusts: NA
Location:  59.57°N, 108.61°W
Report Text: CYSF 232000Z AUTO 10005KT 9SM FEW046 OVC075 M21/M24 A2986 RMK SLP146
Loading
Personal Weather Stations






























Interactive Weather Map New forecast layout! Learn more

10-Day Weather Forecast

Advertisements
Track Severe Weather on mobile